Time,TemperatureF,DewpointF,PressureIn,WindDirection,WindDirectionDegrees,WindSpeedMPH,WindSpeedGustMPH,Humidity,HourlyPrecipIn,Conditions,Clouds,dailyrainin,SoftwareType,DateUTC
2013-10-20 00:08:00,51.0,50.0,31.75,South,188,0.0,0.0,98,0.00,,,0.02,weatherlink.com 1.10,2013-10-20 02:08:00,
2013-10-20 00:24:00,50.8,50.0,31.75,South,188,0.0,3.0,98,0.00,,,0.02,weatherlink.com 1.10,2013-10-20 02:24:00,
2013-10-20 00:39:00,50.3,50.0,31.75,South,188,0.0,3.0,98,0.00,,,0.02,weatherlink.com 1.10,2013-10-20 02:39:00,
2013-10-20 00:54:00,49.5,49.0,31.75,South,188,0.0,0.0,98,0.00,,,0.02,weatherlink.com 1.10,2013-10-20 02:54:00,
2013-10-20 01:09:00,49.1,49.0,31.75,South,188,1.0,2.0,98,0.01,,,0.03,weatherlink.com 1.10,2013-10-20 03:09:00,
2013-10-20 01:24:00,48.1,48.0,31.75,South,188,0.0,2.0,98,0.01,,,0.03,weatherlink.com 1.10,2013-10-20 03:24:00,
2013-10-20 01:39:00,47.2,47.0,31.75,South,188,0.0,0.0,98,0.01,,,0.03,weatherlink.com 1.10,2013-10-20 03:39:00,
2013-10-20 01:54:00,47.4,47.0,31.75,South,188,0.0,0.0,98,0.01,,,0.03,weatherlink.com 1.10,2013-10-20 03:54:00,
2013-10-20 02:09:00,47.3,47.0,31.75,South,188,0.0,1.0,98,0.00,,,0.00,weatherlink.com 1.10,2013-10-20 04:09:00,
2013-10-20 02:25:00,46.8,46.0,31.75,South,188,0.0,0.0,98,0.00,,,0.00,weatherlink.com 1.10,2013-10-20 04:25:00,
2013-10-20 02:40:00,46.0,45.0,31.75,SW,226,2.0,4.0,98,0.00,,,0.00,weatherlink.com 1.10,2013-10-20 04:40:00,
2013-10-20 02:55:00,45.1,45.0,31.75,SW,226,0.0,2.0,98,0.00,,,0.00,weatherlink.com 1.10,2013-10-20 04:55:00,
2013-10-20 03:10:00,45.7,45.0,31.75,SW,226,0.0,1.0,98,0.00,,,0.00,weatherlink.com 1.10,2013-10-20 05:10:00,
2013-10-20 03:25:00,45.0,44.0,31.38,SW,226,0.0,3.0,98,0.00,,,0.00,weatherlink.com 1.10,2013-10-20 05:25:00,
2013-10-20 03:40:00,45.0,44.0,31.38,WSW,253,2.0,4.0,98,0.00,,,0.00,weatherlink.com 1.10,2013-10-20 05:40:00,
2013-10-20 03:55:00,45.4,45.0,31.38,WSW,254,0.0,3.0,98,0.00,,,0.00,weatherlink.com 1.10,2013-10-20 05:55:00,
2013-10-20 04:10:00,44.4,44.0,31.38,WSW,254,0.0,3.0,98,0.00,,,0.00,weatherlink.com 1.10,2013-10-20 06:10:00,
2013-10-20 04:26:00,47.4,46.0,31.38,NW,310,5.0,6.0,96,0.00,,,0.00,weatherlink.com 1.10,2013-10-20 06:26:00,
2013-10-20 04:41:00,50.0,47.0,31.38,NW,319,3.0,5.0,88,0.00,,,0.00,weatherlink.com 1.10,2013-10-20 06:41:00,
2013-10-20 04:56:00,49.7,45.0,32.23,NNW,327,0.0,3.0,85,0.00,,,0.00,weatherlink.com 1.10,2013-10-20 06:56:00,
2013-10-20 05:10:00,45.9,43.0,32.23,NNW,327,0.0,0.0,90,0.00,,,0.00,weatherlink.com 1.10,2013-10-20 07:10:00,
2013-10-20 05:26:00,44.0,42.0,32.23,NW,326,3.0,4.0,94,0.00,,,0.00,weatherlink.com 1.10,2013-10-20 07:26:00,
2013-10-20 05:41:00,44.4,43.0,32.23,NW,325,0.0,3.0,95,0.00,,,0.00,weatherlink.com 1.10,2013-10-20 07:41:00,
2013-10-20 05:56:00,45.6,44.0,32.23,NW,325,2.0,4.0,93,0.00,,,0.00,weatherlink.com 1.10,2013-10-20 07:56:00,
2013-10-20 06:11:00,47.7,44.0,32.23,NW,315,4.0,5.0,87,0.00,,,0.00,weatherlink.com 1.10,2013-10-20 08:11:00,
2013-10-20 06:26:00,48.3,44.0,32.23,NW,319,4.0,7.0,84,0.00,,,0.00,weatherlink.com 1.10,2013-10-20 08:26:00,
2013-10-20 06:41:00,48.4,43.0,32.23,NW,318,6.0,9.0,83,0.00,,,0.00,weatherlink.com 1.10,2013-10-20 08:41:00,
2013-10-20 06:57:00,48.3,43.0,32.23,NW,319,4.0,9.0,81,0.00,,,0.00,weatherlink.com 1.10,2013-10-20 08:57:00,
2013-10-20 07:11:00,48.3,42.0,32.23,NW,324,2.0,7.0,80,0.00,,,0.00,weatherlink.com 1.10,2013-10-20 09:11:00,
2013-10-20 07:27:00,47.7,42.0,32.23,NW,321,2.0,5.0,80,0.00,,,0.00,weatherlink.com 1.10,2013-10-20 09:27:00,
2013-10-20 07:41:00,46.7,41.0,32.23,NW,320,2.0,6.0,82,0.00,,,0.00,weatherlink.com 1.10,2013-10-20 09:41:00,
2013-10-20 07:57:00,46.5,41.0,32.23,NW,314,1.0,7.0,82,0.00,,,0.00,weatherlink.com 1.10,2013-10-20 09:57:00,
2013-10-20 08:12:00,45.5,41.0,32.23,NW,314,1.0,5.0,84,0.00,,,0.00,weatherlink.com 1.10,2013-10-20 10:12:00,
2013-10-20 08:27:00,44.0,40.0,32.23,NW,309,2.0,5.0,87,0.00,,,0.00,weatherlink.com 1.10,2013-10-20 10:27:00,
2013-10-20 08:42:00,44.6,40.0,32.23,WNW,302,2.0,7.0,85,0.00,,,0.00,weatherlink.com 1.10,2013-10-20 10:42:00,
2013-10-20 08:57:00,43.9,40.0,32.23,NW,317,2.0,3.0,86,0.00,,,0.00,weatherlink.com 1.10,2013-10-20 10:57:00,
2013-10-20 09:12:00,42.3,40.0,32.23,NW,317,0.0,3.0,90,0.00,,,0.00,weatherlink.com 1.10,2013-10-20 11:12:00,
2013-10-20 09:28:00,41.9,39.0,32.23,NW,317,2.0,3.0,91,0.00,,,0.00,weatherlink.com 1.10,2013-10-20 11:28:00,
2013-10-20 09:42:00,40.4,38.0,32.23,NW,317,0.0,3.0,92,0.00,,,0.00,weatherlink.com 1.10,2013-10-20 11:42:00,
2013-10-20 09:58:00,40.0,38.0,32.23,NW,317,0.0,0.0,93,0.00,,,0.00,weatherlink.com 1.10,2013-10-20 11:58:00,
2013-10-20 10:12:00,40.4,39.0,32.23,NW,317,0.0,0.0,94,0.00,,,0.00,weatherlink.com 1.10,2013-10-20 12:12:00,
2013-10-20 10:28:00,41.9,40.0,32.23,SSW,206,0.0,0.0,94,0.00,,,0.00,weatherlink.com 1.10,2013-10-20 12:28:00,
2013-10-20 10:43:00,45.0,43.0,32.23,SW,232,0.0,0.0,93,0.00,,,0.00,weatherlink.com 1.10,2013-10-20 12:43:00,
2013-10-20 10:58:00,47.9,45.0,32.23,West,273,0.0,3.0,89,0.00,,,0.00,weatherlink.com 1.10,2013-10-20 12:58:00,
2013-10-20 11:13:00,49.2,45.0,32.23,ESE,105,0.0,1.0,86,0.00,,,0.00,weatherlink.com 1.10,2013-10-20 13:13:00,
2013-10-20 11:28:00,51.9,45.0,32.23,SSE,161,0.0,1.0,77,0.00,,,0.00,weatherlink.com 1.10,2013-10-20 13:28:00,
2013-10-20 11:43:00,52.6,43.0,32.23,SE,136,3.0,4.0,70,0.00,,,0.00,weatherlink.com 1.10,2013-10-20 13:43:00,
2013-10-20 11:58:00,53.0,43.0,32.23,SSE,167,0.0,4.0,69,0.00,,,0.00,weatherlink.com 1.10,2013-10-20 13:58:00,
2013-10-20 12:14:00,53.7,43.0,32.23,ESE,109,0.0,5.0,67,0.00,,,0.00,weatherlink.com 1.10,2013-10-20 14:14:00,
2013-10-20 12:29:00,54.9,42.0,32.23,SE,136,1.0,4.0,62,0.00,,,0.00,weatherlink.com 1.10,2013-10-20 14:29:00,
2013-10-20 12:44:00,55.3,43.0,32.23,SE,126,2.0,4.0,63,0.00,,,0.00,weatherlink.com 1.10,2013-10-20 14:44:00,
2013-10-20 12:59:00,56.2,46.0,32.23,SE,141,4.0,4.0,68,0.00,,,0.00,weatherlink.com 1.10,2013-10-20 14:59:00,
2013-10-20 13:14:00,55.8,43.0,32.23,ENE,64,1.0,6.0,63,0.00,,,0.00,weatherlink.com 1.10,2013-10-20 15:14:00,
2013-10-20 13:29:00,56.8,45.0,32.23,ESE,105,0.0,7.0,64,0.00,,,0.00,weatherlink.com 1.10,2013-10-20 15:29:00,
2013-10-20 13:45:00,57.7,47.0,32.23,ESE,109,1.0,5.0,68,0.00,,,0.00,weatherlink.com 1.10,2013-10-20 15:45:00,
2013-10-20 13:59:00,58.6,46.0,32.23,SE,146,1.0,5.0,63,0.00,,,0.00,weatherlink.com 1.10,2013-10-20 15:59:00,
2013-10-20 14:15:00,58.8,45.0,32.23,SE,145,0.0,6.0,61,0.00,,,0.00,weatherlink.com 1.10,2013-10-20 16:15:00,
2013-10-20 14:30:00,59.0,45.0,32.23,ESE,116,2.0,7.0,59,0.00,,,0.00,weatherlink.com 1.10,2013-10-20 16:30:00,
2013-10-20 14:45:00,59.0,45.0,32.23,SSW,205,3.0,7.0,59,0.00,,,0.00,weatherlink.com 1.10,2013-10-20 16:45:00,
2013-10-20 15:00:00,60.0,46.0,32.23,SW,218,4.0,7.0,59,0.00,,,0.00,weatherlink.com 1.10,2013-10-20 17:00:00,
2013-10-20 15:15:00,60.4,45.0,32.23,SE,132,3.0,8.0,57,0.00,,,0.00,weatherlink.com 1.10,2013-10-20 17:15:00,
2013-10-20 15:30:00,60.5,44.0,32.23,ENE,77,0.0,6.0,55,0.00,,,0.00,weatherlink.com 1.10,2013-10-20 17:30:00,
2013-10-20 15:45:00,61.2,47.0,32.23,South,186,5.0,5.0,59,0.00,,,0.00,weatherlink.com 1.10,2013-10-20 17:45:00,
2013-10-20 16:00:00,61.7,47.0,31.75,SSE,150,2.0,6.0,58,0.00,,,0.00,weatherlink.com 1.10,2013-10-20 18:00:00,
2013-10-20 16:16:00,62.1,45.0,31.75,SW,227,0.0,7.0,53,0.00,,,0.00,weatherlink.com 1.10,2013-10-20 18:16:00,
2013-10-20 16:31:00,62.4,45.0,31.75,SSE,168,3.0,7.0,52,0.00,,,0.00,weatherlink.com 1.10,2013-10-20 18:31:00,
2013-10-20 16:46:00,62.4,44.0,31.75,South,169,1.0,6.0,51,0.00,,,0.00,weatherlink.com 1.10,2013-10-20 18:46:00,
2013-10-20 17:01:00,62.8,46.0,31.75,ENE,71,1.0,5.0,54,0.00,,,0.00,weatherlink.com 1.10,2013-10-20 19:01:00,
2013-10-20 17:16:00,63.6,46.0,31.75,SE,138,3.0,5.0,53,0.00,,,0.00,weatherlink.com 1.10,2013-10-20 19:16:00,
2013-10-20 17:31:00,63.0,46.0,31.75,South,171,0.0,7.0,53,0.00,,,0.00,weatherlink.com 1.10,2013-10-20 19:31:00,
2013-10-20 17:46:00,63.4,46.0,31.75,SSE,163,5.0,10.0,53,0.00,,,0.00,weatherlink.com 1.10,2013-10-20 19:46:00,
2013-10-20 18:01:00,63.3,45.0,31.75,East,90,3.0,6.0,52,0.00,,,0.00,weatherlink.com 1.10,2013-10-20 20:01:00,
2013-10-20 18:17:00,63.5,46.0,31.75,SE,129,0.0,7.0,52,0.00,,,0.00,weatherlink.com 1.10,2013-10-20 20:17:00,
2013-10-20 18:31:00,63.4,45.0,31.75,SE,141,0.0,5.0,51,0.00,,,0.00,weatherlink.com 1.10,2013-10-20 20:31:00,
2013-10-20 18:47:00,63.5,47.0,31.75,SE,142,2.0,5.0,54,0.00,,,0.00,weatherlink.com 1.10,2013-10-20 20:47:00,
2013-10-20 19:01:00,63.0,47.0,31.75,SE,124,0.0,7.0,56,0.00,,,0.00,weatherlink.com 1.10,2013-10-20 21:01:00,
2013-10-20 19:17:00,63.1,45.0,31.75,ESE,123,0.0,4.0,52,0.00,,,0.00,weatherlink.com 1.10,2013-10-20 21:17:00,
2013-10-20 19:32:00,62.7,47.0,31.75,ESE,119,2.0,5.0,56,0.00,,,0.00,weatherlink.com 1.10,2013-10-20 21:32:00,
2013-10-20 19:47:00,62.0,46.0,31.75,ESE,113,2.0,4.0,56,0.00,,,0.00,weatherlink.com 1.10,2013-10-20 21:47:00,
2013-10-20 20:02:00,61.4,46.0,31.75,ESE,113,0.0,2.0,58,0.00,,,0.00,weatherlink.com 1.10,2013-10-20 22:02:00,
2013-10-20 20:17:00,60.5,47.0,31.75,ESE,113,0.0,2.0,61,0.00,,,0.00,weatherlink.com 1.10,2013-10-20 22:17:00,
2013-10-20 20:32:00,59.2,47.0,31.75,ESE,113,0.0,0.0,64,0.00,,,0.00,weatherlink.com 1.10,2013-10-20 22:32:00,
2013-10-20 20:47:00,57.4,47.0,31.75,ESE,113,0.0,0.0,69,0.00,,,0.00,weatherlink.com 1.10,2013-10-20 22:47:00,
2013-10-20 21:02:00,55.2,47.0,31.75,ESE,113,0.0,0.0,75,0.00,,,0.00,weatherlink.com 1.10,2013-10-20 23:02:00,
2013-10-20 21:18:00,53.1,47.0,31.75,ESE,113,0.0,0.0,80,0.00,,,0.00,weatherlink.com 1.10,2013-10-20 23:18:00,
2013-10-20 21:32:00,51.6,47.0,31.75,ESE,113,0.0,0.0,84,0.00,,,0.00,weatherlink.com 1.10,2013-10-20 23:32:00,
2013-10-20 21:48:00,50.3,47.0,31.75,ESE,113,0.0,0.0,87,0.00,,,0.00,weatherlink.com 1.10,2013-10-20 23:48:00,
2013-10-20 22:02:00,49.4,46.0,31.75,ESE,113,0.0,0.0,88,0.00,,,0.00,weatherlink.com 1.10,2013-10-21 00:02:00,
2013-10-20 22:18:00,48.1,45.0,31.75,ESE,113,0.0,0.0,90,0.00,,,0.00,weatherlink.com 1.10,2013-10-21 00:18:00,
2013-10-20 22:33:00,47.3,45.0,31.75,ESE,113,0.0,0.0,91,0.00,,,0.00,weatherlink.com 1.10,2013-10-21 00:33:00,
2013-10-20 22:48:00,46.8,44.0,31.75,ESE,113,0.0,0.0,91,0.00,,,0.00,weatherlink.com 1.10,2013-10-21 00:48:00,
2013-10-20 23:03:00,46.1,44.0,31.75,ESE,113,0.0,0.0,92,0.00,,,0.00,weatherlink.com 1.10,2013-10-21 01:03:00,
2013-10-20 23:18:00,45.4,43.0,31.75,ESE,113,0.0,0.0,92,0.00,,,0.00,weatherlink.com 1.10,2013-10-21 01:18:00,
2013-10-20 23:33:00,45.0,43.0,31.75,ESE,113,0.0,0.0,93,0.00,,,0.00,weatherlink.com 1.10,2013-10-21 01:33:00,
2013-10-20 23:48:00,44.4,43.0,31.75,ESE,113,0.0,0.0,94,0.00,,,0.00,weatherlink.com 1.10,2013-10-21 01:48:00,